createdAt,value
2018-07-10T00:02:35.209Z,3.00
2018-07-10T00:07:29.447Z,3.07
2018-07-10T00:10:19.133Z,2.80
2018-07-10T00:12:47.241Z,3.50
2018-07-10T00:15:15.096Z,2.70
2018-07-10T00:17:42.977Z,2.97
2018-07-10T00:20:11.071Z,2.50
2018-07-10T00:22:39.270Z,2.67
2018-07-10T00:25:07.358Z,2.57
2018-07-10T00:27:35.450Z,3.00
2018-07-10T00:30:03.513Z,2.60
2018-07-10T00:32:31.601Z,2.80
2018-07-10T00:34:59.689Z,4.10
2018-07-10T00:37:27.789Z,2.97
2018-07-10T00:39:55.885Z,4.13
2018-07-10T00:42:24.046Z,3.77
2018-07-10T00:44:52.137Z,3.33
2018-07-10T00:47:20.279Z,2.93
2018-07-10T00:49:48.338Z,3.00
2018-07-10T00:52:29.309Z,4.97
2018-07-10T00:54:57.603Z,4.53
2018-07-10T00:57:25.689Z,2.80
2018-07-10T00:59:54.345Z,3.60
2018-07-10T01:02:22.745Z,2.90
2018-07-10T01:04:50.850Z,2.97
2018-07-10T01:07:18.959Z,2.60
2018-07-10T01:09:47.079Z,4.03
2018-07-10T01:12:15.179Z,2.97
2018-07-10T01:14:43.286Z,2.47
2018-07-10T01:17:11.388Z,3.40
2018-07-10T01:19:39.501Z,2.63
2018-07-10T01:22:07.602Z,5.33
2018-07-10T01:24:35.709Z,2.77
2018-07-10T01:27:03.823Z,2.70
2018-07-10T01:29:37.310Z,2.73
2018-07-10T01:32:05.406Z,2.53
2018-07-10T01:34:33.527Z,4.63
2018-07-10T01:37:01.619Z,7.23
2018-07-10T01:39:29.736Z,2.90
2018-07-10T01:41:57.872Z,2.37
2018-07-10T01:44:25.999Z,2.50
2018-07-10T01:46:54.105Z,2.37
2018-07-10T01:49:22.229Z,2.63
2018-07-10T01:51:50.331Z,3.07
2018-07-10T01:54:18.433Z,2.63
2018-07-10T01:56:46.559Z,4.97
2018-07-10T01:59:16.935Z,2.60
2018-07-10T02:01:45.027Z,2.53
2018-07-10T02:04:13.132Z,2.60
2018-07-10T02:06:41.229Z,2.60
2018-07-10T02:09:09.341Z,3.13
2018-07-10T02:11:37.445Z,2.77
2018-07-10T02:14:05.695Z,2.70
2018-07-10T02:16:33.857Z,2.60
2018-07-10T02:19:01.963Z,3.63
2018-07-10T02:21:30.061Z,5.20
2018-07-10T02:23:58.170Z,2.97
2018-07-10T02:26:27.247Z,2.93
2018-07-10T02:28:56.023Z,3.30
2018-07-10T02:31:24.123Z,3.00
2018-07-10T02:33:52.885Z,2.73
2018-07-10T02:36:21.938Z,2.90
2018-07-10T02:38:51.701Z,2.60
2018-07-10T02:41:21.451Z,6.50
2018-07-10T02:44:00.486Z,2.80
2018-07-10T02:46:29.745Z,2.60
2018-07-10T02:49:05.282Z,7.70
2018-07-10T02:51:35.058Z,4.70
2018-07-10T02:54:03.252Z,4.00
2018-07-10T02:56:31.338Z,3.73
2018-07-10T02:59:01.969Z,2.93
2018-07-10T03:01:30.719Z,3.10
2018-07-10T03:03:59.792Z,2.63
2018-07-10T03:06:27.906Z,3.07
2018-07-10T03:08:56.189Z,5.47
2018-07-10T03:11:24.603Z,3.10
2018-07-10T03:13:52.810Z,3.80
2018-07-10T03:16:21.018Z,3.10
2018-07-10T03:18:49.105Z,2.93
2018-07-10T03:21:17.254Z,2.73
2018-07-10T03:23:45.653Z,7.30
2018-07-10T03:26:13.758Z,3.30
2018-07-10T03:28:42.855Z,3.20
2018-07-10T03:31:11.153Z,3.20
2018-07-10T03:33:39.354Z,3.50
2018-07-10T03:36:07.450Z,3.37
2018-07-10T03:38:35.557Z,3.30
2018-07-10T03:41:03.750Z,3.37
2018-07-10T03:43:31.837Z,3.70
2018-07-10T03:46:00.957Z,3.90
2018-07-10T03:48:29.045Z,4.10
2018-07-10T03:50:57.225Z,3.30
2018-07-10T03:53:25.691Z,3.03
2018-07-10T03:55:53.828Z,3.57
2018-07-10T03:58:21.965Z,3.60
2018-07-10T04:00:49.833Z,3.33
2018-07-10T04:03:18.815Z,5.67
2018-07-10T04:05:46.961Z,3.70
2018-07-10T04:08:15.064Z,4.20
2018-07-10T04:10:43.161Z,4.03
2018-07-10T04:13:13.707Z,5.23
2018-07-10T04:15:44.838Z,4.90
2018-07-10T04:18:14.433Z,3.50
2018-07-10T04:20:48.278Z,4.67
2018-07-10T04:23:16.385Z,3.33
2018-07-10T04:25:49.734Z,5.50
2018-07-10T04:28:28.097Z,3.57
2018-07-10T04:31:05.517Z,3.33
2018-07-10T04:33:33.609Z,3.53
2018-07-10T04:36:01.737Z,3.33
2018-07-10T04:38:29.840Z,3.77
2018-07-10T04:41:03.029Z,3.10
2018-07-10T04:43:31.167Z,5.47
2018-07-10T04:45:59.841Z,4.43
2018-07-10T04:48:38.985Z,4.63
2018-07-10T04:51:12.830Z,4.00
2018-07-10T04:53:43.289Z,3.20
2018-07-10T04:56:12.250Z,4.80
2018-07-10T04:58:41.641Z,4.13
2018-07-10T05:01:09.738Z,3.57
2018-07-10T05:03:37.875Z,4.30
2018-07-10T05:06:07.350Z,5.70
2018-07-10T05:08:35.805Z,4.40
2018-07-10T05:11:04.137Z,5.07
2018-07-10T05:13:32.257Z,5.00
2018-07-10T05:16:03.693Z,7.73
2018-07-10T05:18:32.566Z,8.87
2018-07-10T05:21:03.722Z,7.40
2018-07-10T05:23:31.833Z,4.97
2018-07-10T05:25:59.937Z,7.37
2018-07-10T05:28:28.033Z,5.13
2018-07-10T05:30:59.969Z,5.30
2018-07-10T05:33:28.641Z,5.67
2018-07-10T05:35:56.822Z,6.73
2018-07-10T05:38:35.530Z,6.23
2018-07-10T05:41:04.074Z,7.20
2018-07-10T05:43:32.853Z,6.33
2018-07-10T05:46:01.070Z,11.07
2018-07-10T05:48:29.358Z,6.87
2018-07-10T05:50:57.757Z,12.83
2018-07-10T05:53:25.864Z,6.90
2018-07-10T05:55:54.145Z,7.67
2018-07-10T05:58:22.291Z,10.80
2018-07-10T06:00:50.346Z,7.50
2018-07-10T06:03:18.457Z,9.40
2018-07-10T06:05:46.558Z,7.90
2018-07-10T06:08:14.674Z,8.83
2018-07-10T06:10:42.824Z,8.43
2018-07-10T06:13:10.934Z,11.07
2018-07-10T06:15:39.066Z,11.03
2018-07-10T06:18:07.169Z,9.57
2018-07-10T06:20:35.253Z,7.50
2018-07-10T06:23:03.353Z,8.10
2018-07-10T06:25:34.276Z,8.03
2018-07-10T06:28:15.568Z,12.23
2018-07-10T06:30:43.693Z,9.37
2018-07-10T06:33:14.961Z,7.67
2018-07-10T06:35:47.862Z,8.67
2018-07-10T06:38:17.501Z,9.80
2018-07-10T06:40:48.267Z,8.90
2018-07-10T06:43:24.104Z,9.30
2018-07-10T06:45:52.480Z,10.50
2018-07-10T06:48:21.842Z,10.10
2018-07-10T06:50:50.029Z,9.27
2018-07-10T06:53:21.372Z,11.83
2018-07-10T06:55:58.881Z,10.27
2018-07-10T06:58:32.289Z,9.27
2018-07-10T07:01:00.453Z,13.00
2018-07-10T07:03:28.639Z,9.30
2018-07-10T07:05:57.071Z,12.40
2018-07-10T07:08:25.292Z,11.10
2018-07-10T07:10:53.418Z,9.73
2018-07-10T07:13:22.037Z,11.10
2018-07-10T07:15:50.547Z,10.63
2018-07-10T07:18:18.641Z,12.17
2018-07-10T07:20:46.801Z,12.60
2018-07-10T07:23:14.930Z,15.27
2018-07-10T07:25:43.025Z,13.47
2018-07-10T07:28:11.166Z,11.97
2018-07-10T07:30:39.286Z,18.73
2018-07-10T07:33:07.422Z,11.60
2018-07-10T07:35:35.539Z,12.20
2018-07-10T07:38:03.677Z,13.03
2018-07-10T07:40:31.777Z,11.80
2018-07-10T07:42:59.893Z,12.40
2018-07-10T07:45:27.997Z,13.00
2018-07-10T07:47:56.145Z,13.53
2018-07-10T07:50:28.112Z,11.33
2018-07-10T07:52:56.511Z,12.90
2018-07-10T07:55:24.971Z,11.57
2018-07-10T07:57:53.113Z,10.97
2018-07-10T08:00:21.302Z,10.97
2018-07-10T08:02:49.395Z,10.50
2018-07-10T08:05:17.861Z,11.57
2018-07-10T08:07:45.994Z,14.83
2018-07-10T08:10:14.507Z,11.83
2018-07-10T08:12:42.642Z,11.30
2018-07-10T08:15:11.580Z,11.03
2018-07-10T08:17:39.714Z,11.00
2018-07-10T08:20:07.849Z,8.43
2018-07-10T08:22:36.063Z,9.57
2018-07-10T08:25:04.706Z,8.40
2018-07-10T08:27:33.812Z,8.57
2018-07-10T08:30:01.957Z,8.87
2018-07-10T08:32:30.485Z,10.37
2018-07-10T08:34:58.661Z,9.63
2018-07-10T08:37:27.038Z,10.73
2018-07-10T08:39:55.166Z,11.73
2018-07-10T08:42:23.298Z,10.53
2018-07-10T08:44:51.434Z,9.50
2018-07-10T08:47:19.566Z,10.63
2018-07-10T08:49:48.025Z,10.10
2018-07-10T08:52:16.108Z,9.30
2018-07-10T08:54:44.245Z,11.70
2018-07-10T08:57:12.341Z,8.27
2018-07-10T08:59:40.489Z,12.40
2018-07-10T09:02:08.585Z,13.03
2018-07-10T09:04:36.722Z,8.70
2018-07-10T09:07:05.589Z,7.90
2018-07-10T09:09:33.712Z,10.43
2018-07-10T09:12:01.993Z,12.40
2018-07-10T09:14:30.123Z,12.90
2018-07-10T09:16:58.234Z,12.53
2018-07-10T09:19:29.780Z,14.00
2018-07-10T09:22:00.254Z,16.83
2018-07-10T09:24:28.396Z,19.80
2018-07-10T09:26:56.521Z,15.40
2018-07-10T09:29:24.698Z,23.00
2018-07-10T09:31:52.804Z,16.93
2018-07-10T09:34:20.932Z,14.87
2018-07-10T09:36:49.057Z,14.97
2018-07-10T09:39:17.175Z,14.63
2018-07-10T09:41:45.822Z,16.47
2018-07-10T09:44:13.957Z,15.87
2018-07-10T09:46:42.078Z,16.63
2018-07-10T09:49:10.201Z,16.70
2018-07-10T09:51:40.740Z,14.60
2018-07-10T09:54:08.860Z,16.63
2018-07-10T09:56:36.972Z,22.10
2018-07-10T09:59:05.072Z,15.90
2018-07-10T10:01:34.467Z,17.80
2018-07-10T10:04:03.622Z,17.10
2018-07-10T10:06:32.037Z,21.13
2018-07-10T10:09:00.147Z,16.70
2018-07-10T10:11:28.271Z,16.20
2018-07-10T10:13:56.377Z,14.57
2018-07-10T10:16:24.517Z,15.17
2018-07-10T10:18:54.912Z,15.53
2018-07-10T10:21:23.025Z,13.63
2018-07-10T10:23:51.130Z,13.57
2018-07-10T10:26:20.875Z,13.40
2018-07-10T10:28:49.170Z,12.07
2018-07-10T10:31:17.282Z,12.07
2018-07-10T10:33:45.470Z,12.40
2018-07-10T10:36:13.576Z,15.50
2018-07-10T10:38:43.483Z,13.67
2018-07-10T10:41:12.886Z,12.00
2018-07-10T10:43:41.057Z,14.33
2018-07-10T10:46:09.449Z,14.80
2018-07-10T10:48:37.634Z,12.10
2018-07-10T10:51:06.158Z,12.60
2018-07-10T10:53:34.256Z,15.10
2018-07-10T10:56:02.793Z,15.60
2018-07-10T10:58:30.906Z,16.20
2018-07-10T11:00:59.004Z,13.50
2018-07-10T11:03:27.117Z,12.97
2018-07-10T11:05:55.248Z,13.73
2018-07-10T11:08:23.386Z,13.23
2018-07-10T11:10:51.609Z,14.37
2018-07-10T11:13:19.745Z,13.70
2018-07-10T11:15:49.809Z,12.97
2018-07-10T11:18:39.448Z,14.10
2018-07-10T11:21:14.174Z,13.53
2018-07-10T11:23:51.292Z,13.27
2018-07-10T11:26:25.556Z,11.87
2018-07-10T11:28:54.409Z,13.60
2018-07-10T11:31:22.573Z,15.20
2018-07-10T11:33:50.702Z,13.03
2018-07-10T11:36:18.829Z,13.00
2018-07-10T11:38:46.946Z,14.00
2018-07-10T11:41:15.994Z,13.93
2018-07-10T11:43:44.135Z,12.17
2018-07-10T11:46:14.424Z,15.77
2018-07-10T11:48:42.666Z,13.00
2018-07-10T11:51:10.775Z,13.27
2018-07-10T11:53:39.316Z,14.13
2018-07-10T11:56:07.489Z,13.53
2018-07-10T11:58:35.628Z,12.63
2018-07-10T12:01:03.740Z,15.77
2018-07-10T12:03:37.277Z,13.37
2018-07-10T12:06:05.952Z,15.43
2018-07-10T12:08:34.057Z,15.23
2018-07-10T12:11:11.551Z,13.47
2018-07-10T12:13:40.329Z,12.33
2018-07-10T12:16:08.876Z,13.80
2018-07-10T12:18:37.021Z,15.10
2018-07-10T12:21:05.470Z,19.30
2018-07-10T12:23:33.602Z,10.53
2018-07-10T12:26:04.273Z,14.50
2018-07-10T12:28:32.865Z,15.80
2018-07-10T12:31:01.436Z,10.87
2018-07-10T12:33:29.589Z,10.80
2018-07-10T12:35:57.697Z,11.73
2018-07-10T12:38:25.826Z,11.77
2018-07-10T12:40:53.935Z,10.10
2018-07-10T12:43:22.062Z,10.40
2018-07-10T12:45:56.699Z,11.53
2018-07-10T12:48:24.909Z,11.03
2018-07-10T12:50:53.062Z,13.33
2018-07-10T12:53:21.184Z,12.03
2018-07-10T12:55:49.325Z,10.70
2018-07-10T12:58:18.304Z,11.17
2018-07-10T13:00:46.425Z,9.90
2018-07-10T13:03:16.036Z,14.80
2018-07-10T13:05:59.392Z,11.90
2018-07-10T13:08:27.535Z,9.60
2018-07-10T13:10:55.673Z,8.77
2018-07-10T13:13:23.818Z,10.70
2018-07-10T13:15:51.942Z,8.93
2018-07-10T13:18:23.524Z,9.20
2018-07-10T13:20:51.689Z,7.40
2018-07-10T13:23:20.010Z,9.30
2018-07-10T13:25:48.600Z,8.33
2018-07-10T13:28:16.883Z,8.17
2018-07-10T13:30:45.223Z,6.97
2018-07-10T13:33:13.655Z,6.27
2018-07-10T13:35:41.862Z,11.97
2018-07-10T13:38:10.062Z,7.73
2018-07-10T13:40:38.615Z,6.40
2018-07-10T13:43:06.802Z,8.73
2018-07-10T13:45:34.929Z,6.90
2018-07-10T13:48:03.082Z,9.03
2018-07-10T13:50:32.543Z,6.10
2018-07-10T13:53:01.733Z,6.10
2018-07-10T13:55:30.214Z,6.67
2018-07-10T13:58:04.533Z,6.43
2018-07-10T14:00:35.135Z,7.53
2018-07-10T14:03:03.271Z,8.70
2018-07-10T14:05:31.418Z,6.70
2018-07-10T14:07:59.562Z,6.40
2018-07-10T14:10:27.703Z,6.73
2018-07-10T14:12:55.832Z,6.60
2018-07-10T14:15:24.659Z,5.83
2018-07-10T14:17:53.426Z,7.97
2018-07-10T14:20:21.335Z,6.57
2018-07-10T14:22:49.482Z,5.47
2018-07-10T14:25:17.854Z,7.27
2018-07-10T14:27:46.000Z,12.37
2018-07-10T14:30:14.143Z,5.77
2018-07-10T14:32:42.277Z,4.93
2018-07-10T14:35:10.399Z,5.47
2018-07-10T14:37:38.812Z,5.67
2018-07-10T14:40:06.951Z,4.90
2018-07-10T14:42:35.090Z,6.40
2018-07-10T14:45:04.768Z,7.07
2018-07-10T14:47:34.331Z,5.10
2018-07-10T14:50:03.054Z,11.33
2018-07-10T14:52:31.196Z,4.20
2018-07-10T14:54:59.315Z,5.97
2018-07-10T14:57:27.415Z,4.47
2018-07-10T14:59:55.533Z,5.23
2018-07-10T15:02:23.710Z,6.27
2018-07-10T15:04:51.809Z,6.00
2018-07-10T15:07:20.293Z,5.37
2018-07-10T15:09:48.418Z,5.90
2018-07-10T15:12:16.585Z,5.83
2018-07-10T15:14:44.909Z,4.90
2018-07-10T15:17:18.309Z,6.83
2018-07-10T15:19:46.477Z,5.50
2018-07-10T15:22:14.578Z,6.93
2018-07-10T15:24:42.874Z,4.40
2018-07-10T15:27:11.059Z,4.53
2018-07-10T15:29:39.239Z,4.00
2018-07-10T15:32:07.454Z,5.50
2018-07-10T15:34:35.575Z,3.63
2018-07-10T15:37:03.719Z,4.33
2018-07-10T15:42:07.078Z,3.70
2018-07-10T15:44:35.261Z,4.20
2018-07-10T15:47:03.446Z,4.17
2018-07-10T15:49:31.585Z,4.47
2018-07-10T15:52:00.274Z,4.60
2018-07-10T15:54:28.432Z,4.40
2018-07-10T15:56:56.549Z,3.40
2018-07-10T15:59:24.646Z,3.87
2018-07-10T16:01:52.745Z,8.40
2018-07-10T16:04:20.877Z,3.60
2018-07-10T16:06:48.984Z,3.67
2018-07-10T16:09:18.612Z,4.37
2018-07-10T16:11:48.954Z,3.80
2018-07-10T16:14:17.155Z,3.13
2018-07-10T16:16:46.365Z,4.30
2018-07-10T16:19:16.809Z,5.30
2018-07-10T16:22:22.539Z,3.87
2018-07-10T16:24:52.249Z,3.30
2018-07-10T16:27:27.665Z,3.30
2018-07-10T16:29:55.772Z,3.33
2018-07-10T16:32:24.778Z,3.10
2018-07-10T16:34:52.889Z,4.40
2018-07-10T16:37:20.992Z,3.53
2018-07-10T16:39:49.097Z,3.60
2018-07-10T16:42:22.629Z,5.30
2018-07-10T16:44:51.518Z,6.03
2018-07-10T16:47:23.128Z,5.20
2018-07-10T16:49:51.281Z,3.93
2018-07-10T16:52:39.017Z,6.10
2018-07-10T16:55:07.133Z,3.23
2018-07-10T16:57:35.040Z,5.67
2018-07-10T17:00:03.017Z,3.80
2018-07-10T17:02:31.182Z,5.07
2018-07-10T17:04:59.339Z,2.87
2018-07-10T17:07:27.572Z,5.47
2018-07-10T17:09:55.672Z,2.93
2018-07-10T17:12:23.790Z,4.73
2018-07-10T17:14:54.978Z,3.10
2018-07-10T17:17:23.212Z,3.07
2018-07-10T17:19:52.004Z,3.10
2018-07-10T17:22:20.582Z,5.30
2018-07-10T17:24:48.800Z,7.20
2018-07-10T17:27:18.765Z,3.30
2018-07-10T17:29:46.982Z,3.40
2018-07-10T17:32:15.090Z,3.30
2018-07-10T17:34:43.198Z,3.10
2018-07-10T17:37:11.335Z,2.60
2018-07-10T17:39:39.425Z,4.63
2018-07-10T17:42:07.617Z,2.80
2018-07-10T17:44:35.709Z,3.47
2018-07-10T17:47:03.822Z,4.10
2018-07-10T17:49:31.955Z,4.23
2018-07-10T17:52:00.057Z,3.93
2018-07-10T17:54:28.248Z,2.97
2018-07-10T17:56:56.274Z,3.00
2018-07-10T17:59:24.421Z,4.13
2018-07-10T18:01:52.613Z,3.13
2018-07-10T18:04:20.697Z,2.93
2018-07-10T18:06:48.809Z,3.00
2018-07-10T18:09:17.430Z,2.60
2018-07-10T18:11:45.542Z,3.00
2018-07-10T18:14:13.664Z,3.20
2018-07-10T18:16:41.900Z,3.40
2018-07-10T18:19:10.015Z,3.00
2018-07-10T18:21:38.120Z,2.97
2018-07-10T18:24:06.262Z,3.90
2018-07-10T18:26:34.365Z,2.97
2018-07-10T18:29:02.466Z,4.40
2018-07-10T18:31:30.570Z,3.50
2018-07-10T18:33:58.682Z,3.50
2018-07-10T18:36:26.800Z,3.07
2018-07-10T18:38:55.078Z,3.10
2018-07-10T18:41:23.181Z,4.83
2018-07-10T18:43:52.136Z,3.30
2018-07-10T18:46:21.434Z,2.90
2018-07-10T18:48:50.354Z,4.10
2018-07-10T18:51:19.867Z,2.83
2018-07-10T18:53:49.206Z,2.93
2018-07-10T18:56:17.355Z,5.50
2018-07-10T18:58:51.026Z,2.90
2018-07-10T19:02:24.425Z,2.77
2018-07-10T19:05:02.801Z,3.20
2018-07-10T19:07:31.419Z,2.57
2018-07-10T19:09:59.989Z,3.23
2018-07-10T19:12:28.458Z,2.30
2018-07-10T19:14:56.686Z,2.80
2018-07-10T19:17:29.915Z,3.83
2018-07-10T19:20:13.410Z,3.97
2018-07-10T19:23:01.157Z,3.03
2018-07-10T19:25:29.430Z,3.07
2018-07-10T19:27:58.833Z,2.90
2018-07-10T19:31:32.822Z,2.70
2018-07-10T19:34:01.048Z,2.80
2018-07-10T19:36:29.191Z,2.90
2018-07-10T19:38:57.473Z,2.70
2018-07-10T19:41:26.392Z,3.20
2018-07-10T19:43:55.570Z,2.50
2018-07-10T19:46:23.776Z,3.10
2018-07-10T19:48:54.186Z,3.07
2018-07-10T19:51:24.017Z,3.20
2018-07-10T19:53:53.692Z,4.47
2018-07-10T19:56:22.444Z,2.90
2018-07-10T19:58:50.548Z,18.63
2018-07-10T20:01:22.881Z,3.23
2018-07-10T20:04:03.741Z,3.07
2018-07-10T20:07:08.209Z,2.80
2018-07-10T20:09:52.056Z,3.33
2018-07-10T20:12:33.064Z,6.00
2018-07-10T20:15:26.185Z,2.83
2018-07-10T20:18:16.086Z,3.47
2018-07-10T20:20:51.979Z,3.00
2018-07-10T20:23:24.178Z,2.40
2018-07-10T20:28:10.429Z,2.83
2018-07-10T20:30:53.726Z,4.33
2018-07-10T20:33:27.908Z,3.23
2018-07-10T20:35:58.789Z,3.27
2018-07-10T20:38:27.146Z,3.37
2018-07-10T20:40:55.242Z,3.60
2018-07-10T20:43:24.158Z,6.67
2018-07-10T20:45:54.093Z,3.57
2018-07-10T20:48:58.580Z,3.80
2018-07-10T20:51:31.853Z,2.83
2018-07-10T20:54:05.545Z,3.27
2018-07-10T20:58:47.202Z,3.30
2018-07-10T21:01:15.301Z,6.97
2018-07-10T21:03:50.873Z,3.53
2018-07-10T21:06:28.488Z,5.67
2018-07-10T21:09:14.358Z,3.00
2018-07-10T21:11:48.073Z,3.27
2018-07-10T21:14:52.685Z,2.53
2018-07-10T21:17:28.214Z,2.53
2018-07-10T21:20:03.258Z,3.00
2018-07-10T21:22:45.390Z,3.17
2018-07-10T21:25:19.379Z,2.90
2018-07-10T21:28:24.608Z,2.67
2018-07-10T21:31:01.677Z,2.60
2018-07-10T21:33:40.425Z,3.43
2018-07-10T21:36:16.479Z,3.53
2018-07-10T21:39:01.672Z,2.73
2018-07-10T21:41:45.317Z,2.97
2018-07-10T21:44:36.840Z,3.23
2018-07-10T21:47:16.272Z,4.30
2018-07-10T21:49:48.742Z,4.00
2018-07-10T21:52:16.840Z,3.33
2018-07-10T21:54:45.038Z,3.03
2018-07-10T21:57:14.793Z,2.70
2018-07-10T21:59:53.853Z,2.60
2018-07-10T22:02:23.096Z,2.80
2018-07-10T22:04:53.447Z,2.70
2018-07-10T22:07:21.754Z,3.10
2018-07-10T22:09:50.318Z,3.13
2018-07-10T22:12:19.621Z,4.00
2018-07-10T22:14:47.986Z,2.73
2018-07-10T22:17:22.337Z,2.60
2018-07-10T22:19:51.678Z,3.83
2018-07-10T22:22:20.929Z,2.77
2018-07-10T22:24:49.921Z,2.70
2018-07-10T22:27:18.586Z,3.40
2018-07-10T22:29:52.620Z,2.90
2018-07-10T22:32:26.485Z,3.00
2018-07-10T22:34:54.753Z,2.60
2018-07-10T22:37:22.853Z,2.70
2018-07-10T22:39:50.970Z,2.90
2018-07-10T22:42:19.069Z,2.40
2018-07-10T22:44:50.166Z,2.50
2018-07-10T22:47:23.441Z,2.80
2018-07-10T22:49:51.578Z,2.90
2018-07-10T22:52:19.740Z,3.10
2018-07-10T22:54:47.839Z,3.10
2018-07-10T22:57:15.956Z,2.77
2018-07-10T22:59:44.068Z,2.87
2018-07-10T23:02:12.169Z,2.60
2018-07-10T23:04:40.477Z,2.83
2018-07-10T23:07:08.942Z,2.93
2018-07-10T23:09:37.045Z,2.90
2018-07-10T23:12:05.146Z,3.20
2018-07-10T23:14:33.734Z,2.40
2018-07-10T23:17:01.855Z,3.10
2018-07-10T23:19:29.954Z,2.97
2018-07-10T23:21:58.053Z,3.23
2018-07-10T23:24:26.143Z,3.80
2018-07-10T23:26:54.263Z,5.17
2018-07-10T23:29:33.276Z,2.90
2018-07-10T23:32:01.510Z,3.00
2018-07-10T23:34:29.613Z,2.90
2018-07-10T23:36:59.583Z,4.70
2018-07-10T23:39:36.798Z,2.43
2018-07-10T23:42:09.010Z,2.90
2018-07-10T23:44:39.001Z,2.80
2018-07-10T23:47:29.125Z,2.70
2018-07-10T23:49:58.612Z,3.07
2018-07-10T23:53:36.301Z,3.23
2018-07-10T23:56:04.430Z,2.50
2018-07-10T23:58:33.212Z,6.80
